Terminal Aerodrome Forecast
Issued by NWS

Home | Current Version | Previous Version | Text Only | Print | Product List | Glossary On
Versions: 1 2 3 4 5 6 7 8 9 10 11 12 13 14 15 16 17 18 19 20 21 22 23 24 25 26 27
000
FTAK31 PANC 221723
TAFACD
TAF
PACD 221723Z 2218/2318 27018KT P6SM VCSH SCT040
     FM222100 26015G20KT P6SM SCT030 BKN040
     FM230100 22015G25KT P6SM SCT020 BKN030 OVC050
     FM230800 17020G30KT P6SM -RA BKN020 OVC040=

USA.gov is the U.S. government's official web portal to all federal, state and local government web resources and services.